Time;durP1;ratioP1;P1;durP2;ratioP2;P2;SDS_P1;SDS_P2;PMS_P1;PMS_P2;Temp;Humidity;BMP_temperature;BMP_pressure;BME280_temperature;BME280_humidity;BME280_pressure;Samples;Min_cycle;Max_cycle;Signal;HPM_P1;HPM_P2
2023/07/28 00:00:25;;;;;;;3.60;2.33;;;25.00;99.90;;;;;;5031223;28;20052;-59
2023/07/28 00:02:50;;;;;;;3.45;2.83;;;24.90;99.90;;;;;;5032622;28;20018;-59
2023/07/28 00:05:16;;;;;;;3.03;2.42;;;24.80;99.90;;;;;;5034726;28;20487;-59
2023/07/28 00:07:42;;;;;;;3.92;2.90;;;24.80;99.90;;;;;;5034758;28;20484;-59
2023/07/28 00:10:08;;;;;;;4.07;2.88;;;24.70;99.90;;;;;;5026968;28;20117;-59
2023/07/28 00:12:34;;;;;;;5.25;2.67;;;24.80;99.90;;;;;;5035125;28;20483;-59
2023/07/28 00:15:00;;;;;;;5.30;2.30;;;24.70;99.90;;;;;;5028563;28;20075;-59
2023/07/28 00:17:26;;;;;;;5.90;3.08;;;24.70;99.90;;;;;;5030927;28;20034;-59
2023/07/28 00:19:51;;;;;;;3.85;3.10;;;24.80;99.90;;;;;;5033719;28;20049;-59
2023/07/28 00:22:17;;;;;;;3.95;2.90;;;24.70;99.90;;;;;;5031454;28;20041;-59
2023/07/28 00:24:43;;;;;;;4.88;2.55;;;24.80;99.90;;;;;;5035737;28;20030;-59
2023/07/28 00:27:08;;;;;;;4.68;3.13;;;24.80;99.90;;;;;;5035165;28;20387;-59
2023/07/28 00:29:34;;;;;;;4.40;2.95;;;24.80;99.90;;;;;;5020445;28;20078;-58
2023/07/28 00:32:00;;;;;;;3.05;2.80;;;24.60;99.90;;;;;;5035281;28;20021;-59
2023/07/28 00:34:27;;;;;;;3.22;2.60;;;24.60;99.90;;;;;;5034973;28;20075;-59
2023/07/28 00:36:52;;;;;;;5.68;2.58;;;24.50;99.90;;;;;;5022378;28;20045;-59
2023/07/28 00:39:18;;;;;;;4.95;2.85;;;24.50;99.90;;;;;;5019556;28;20038;-59
2023/07/28 00:41:45;;;;;;;3.20;2.45;;;24.50;99.90;;;;;;5027763;28;20042;-58
2023/07/28 00:44:10;;;;;;;4.53;3.00;;;24.50;99.90;;;;;;5029624;28;20034;-59
2023/07/28 00:46:36;;;;;;;3.95;2.65;;;24.40;99.90;;;;;;5034647;28;20031;-58
2023/07/28 00:49:03;;;;;;;5.70;2.95;;;24.40;99.90;;;;;;5035025;28;20087;-58
2023/07/28 00:51:29;;;;;;;5.00;2.47;;;24.40;99.90;;;;;;5032600;28;20015;-58
2023/07/28 00:53:55;;;;;;;4.35;3.08;;;24.40;99.90;;;;;;5025916;28;20032;-59
2023/07/28 00:56:22;;;;;;;3.75;2.90;;;24.40;99.90;;;;;;5029891;28;20034;-58
2023/07/28 00:58:48;;;;;;;5.07;3.17;;;24.30;99.90;;;;;;5035041;28;20041;-59
2023/07/28 01:01:13;;;;;;;4.53;3.08;;;24.20;99.90;;;;;;5034394;28;20425;-58
2023/07/28 01:03:39;;;;;;;5.50;2.85;;;24.20;99.90;;;;;;5034475;28;20044;-59
2023/07/28 01:06:35;;;;;;;5.55;2.63;;;24.20;99.90;;;;;;5033828;28;20029;-58
2023/07/28 01:09:13;;;;;;;6.07;3.33;;;24.10;99.90;;;;;;5026876;28;20017;-59
2023/07/28 01:11:38;;;;;;;3.15;2.85;;;24.10;99.90;;;;;;5032953;28;20128;-58
2023/07/28 01:14:04;;;;;;;5.70;2.88;;;24.10;99.90;;;;;;5033279;28;20103;-58
2023/07/28 01:16:30;;;;;;;4.45;3.13;;;24.10;99.90;;;;;;5026587;28;20432;-58
2023/07/28 01:18:55;;;;;;;4.82;3.03;;;24.10;99.90;;;;;;5024325;28;20395;-58
2023/07/28 01:21:25;;;;;;;3.20;2.90;;;24.10;99.90;;;;;;5032812;28;20048;-59
2023/07/28 01:23:56;;;;;;;5.97;3.28;;;24.00;99.90;;;;;;5029073;28;20436;-58
2023/07/28 01:26:36;;;;;;;4.65;3.20;;;24.00;99.90;;;;;;5023607;28;20022;-58
2023/07/28 01:29:06;;;;;;;5.15;3.22;;;23.90;99.90;;;;;;5033747;28;20083;-58
2023/07/28 01:31:32;;;;;;;5.65;3.35;;;23.90;99.90;;;;;;5028771;28;20480;-59
2023/07/28 01:33:58;;;;;;;8.77;3.40;;;23.90;99.90;;;;;;5033061;28;20108;-59
2023/07/28 01:36:24;;;;;;;5.00;3.20;;;23.90;99.90;;;;;;5034252;28;20462;-58
2023/07/28 01:38:50;;;;;;;3.83;3.15;;;24.00;99.90;;;;;;5033558;28;20052;-58
2023/07/28 01:41:15;;;;;;;4.88;3.60;;;24.00;99.90;;;;;;5030273;28;20033;-58
2023/07/28 01:43:43;;;;;;;10.18;3.83;;;24.00;99.90;;;;;;5033492;28;20052;-58
2023/07/28 01:46:08;;;;;;;5.32;3.00;;;24.00;99.90;;;;;;5028435;28;20036;-58
2023/07/28 01:48:34;;;;;;;3.80;3.10;;;23.80;99.90;;;;;;5033089;28;20354;-58
2023/07/28 01:51:00;;;;;;;5.88;3.30;;;24.00;99.90;;;;;;5033371;28;20061;-59
2023/07/28 01:53:25;;;;;;;5.35;3.42;;;24.00;99.90;;;;;;5022371;28;20032;-58
2023/07/28 01:55:51;;;;;;;5.88;3.35;;;23.80;99.90;;;;;;5031602;28;20025;-59
2023/07/28 01:58:16;;;;;;;6.13;3.78;;;23.80;99.90;;;;;;5022154;28;20038;-58
2023/07/28 02:00:42;;;;;;;7.82;4.20;;;23.80;99.90;;;;;;5024659;28;20144;-58
2023/07/28 02:03:08;;;;;;;5.82;3.65;;;23.90;99.90;;;;;;5031547;28;20026;-58
2023/07/28 02:05:34;;;;;;;7.05;3.67;;;23.90;99.90;;;;;;5033207;28;20088;-58
2023/07/28 02:07:59;;;;;;;5.95;4.18;;;23.90;99.90;;;;;;5027317;28;20032;-58
2023/07/28 02:10:27;;;;;;;6.22;3.60;;;23.90;99.90;;;;;;5032927;28;20029;-58
2023/07/28 02:12:52;;;;;;;3.53;2.90;;;23.90;99.90;;;;;;5032256;28;20032;-58
2023/07/28 02:15:18;;;;;;;7.68;4.05;;;24.00;99.90;;;;;;5031921;28;20108;-58
2023/07/28 02:17:44;;;;;;;7.68;4.53;;;23.90;99.90;;;;;;5019638;28;20022;-58
2023/07/28 02:20:15;;;;;;;7.32;3.78;;;23.90;99.90;;;;;;5033016;28;20487;-58
2023/07/28 02:22:41;;;;;;;6.93;3.70;;;23.90;99.90;;;;;;5030091;28;20391;-57
2023/07/28 02:25:07;;;;;;;6.95;4.25;;;23.90;99.90;;;;;;5032834;28;20040;-58
2023/07/28 02:27:33;;;;;;;6.03;3.80;;;23.90;99.90;;;;;;5032750;28;20025;-58
2023/07/28 02:29:59;;;;;;;7.25;3.55;;;23.80;99.90;;;;;;5028806;28;20124;-58
2023/07/28 02:32:24;;;;;;;5.75;3.72;;;23.80;99.90;;;;;;5030456;28;20025;-58
2023/07/28 02:34:50;;;;;;;5.90;3.72;;;23.90;99.90;;;;;;5031669;28;20037;-58
2023/07/28 02:37:16;;;;;;;6.50;3.92;;;23.80;99.90;;;;;;5032864;28;20479;-58
2023/07/28 02:39:42;;;;;;;5.97;3.45;;;23.80;99.90;;;;;;5025725;28;20037;-58
2023/07/28 02:42:07;;;;;;;6.88;3.80;;;23.80;99.90;;;;;;5031345;28;20029;-59
2023/07/28 02:44:34;;;;;;;6.82;3.80;;;23.80;99.90;;;;;;5032674;28;20460;-59
2023/07/28 02:47:00;;;;;;;3.58;3.15;;;23.80;99.90;;;;;;5032792;28;20033;-59
2023/07/28 02:49:25;;;;;;;7.05;3.80;;;23.80;99.90;;;;;;5032833;28;20432;-59
2023/07/28 02:51:51;;;;;;;5.32;3.80;;;23.70;99.90;;;;;;5032502;28;20017;-59
2023/07/28 02:54:17;;;;;;;11.98;4.90;;;23.70;99.90;;;;;;5020397;28;20034;-59
2023/07/28 02:56:49;;;;;;;5.78;3.42;;;23.80;99.90;;;;;;5020122;28;20032;-59
2023/07/28 03:02:37;;;;;;;8.40;3.78;;;23.80;99.90;;;;;;5028356;28;20040;-59
2023/07/28 03:05:02;;;;;;;5.25;3.65;;;23.70;99.90;;;;;;5033051;28;20029;-59
2023/07/28 03:07:28;;;;;;;5.25;3.42;;;23.80;99.90;;;;;;5030546;28;20383;-59
2023/07/28 03:10:06;;;;;;;5.63;3.47;;;23.70;99.90;;;;;;5029447;28;20390;-59
2023/07/28 03:12:31;;;;;;;3.33;2.97;;;23.70;99.90;;;;;;5023392;28;20075;-59
2023/07/28 03:14:57;;;;;;;5.75;3.33;;;23.80;99.90;;;;;;5032827;28;20025;-59
2023/07/28 03:17:23;;;;;;;5.78;3.00;;;23.70;99.90;;;;;;5033206;28;20088;-59
2023/07/28 03:19:48;;;;;;;4.90;2.85;;;23.80;99.90;;;;;;5029330;28;20553;-59
2023/07/28 03:22:17;;;;;;;3.50;3.05;;;23.60;99.90;;;;;;5031904;28;20072;-59
2023/07/28 03:24:46;;;;;;;5.13;3.25;;;23.70;99.90;;;;;;5031544;28;20509;-59
2023/07/28 03:27:11;;;;;;;5.25;3.42;;;23.60;99.90;;;;;;5032347;28;20083;-58
2023/07/28 03:29:37;;;;;;;5.68;3.58;;;23.60;99.90;;;;;;5033052;28;20483;-59
2023/07/28 03:32:03;;;;;;;4.75;3.00;;;23.60;99.90;;;;;;5031649;28;20065;-59
2023/07/28 03:34:28;;;;;;;5.50;2.63;;;23.60;99.90;;;;;;5033015;28;20022;-59
2023/07/28 03:36:54;;;;;;;5.93;3.28;;;23.60;99.90;;;;;;5030346;28;20072;-59
2023/07/28 03:39:20;;;;;;;5.30;2.80;;;23.60;99.90;;;;;;5032531;28;20026;-59
2023/07/28 03:41:45;;;;;;;4.30;3.03;;;23.60;99.90;;;;;;5030544;28;20036;-60
2023/07/28 03:44:11;;;;;;;5.43;2.47;;;23.60;99.90;;;;;;5032478;28;20021;-62
2023/07/28 03:46:37;;;;;;;5.75;3.05;;;23.50;99.90;;;;;;5032641;28;20491;-59
2023/07/28 03:49:04;;;;;;;4.07;2.70;;;23.50;99.90;;;;;;5021343;28;20387;-59
2023/07/28 03:51:33;;;;;;;5.22;3.08;;;23.50;99.90;;;;;;5026663;28;20026;-59
2023/07/28 03:53:59;;;;;;;6.82;3.05;;;23.50;99.90;;;;;;5030725;28;20029;-58
2023/07/28 03:56:25;;;;;;;3.95;2.78;;;23.50;99.90;;;;;;5032747;28;20131;-59
2023/07/28 03:58:50;;;;;;;8.25;3.47;;;23.40;99.90;;;;;;5031239;28;20041;-58
2023/07/28 04:01:18;;;;;;;6.15;3.42;;;23.30;99.90;;;;;;5023573;28;20048;-59
2023/07/28 04:03:43;;;;;;;4.72;2.78;;;23.20;99.90;;;;;;5026884;28;20021;-58
2023/07/28 04:06:12;;;;;;;4.30;2.63;;;23.10;99.90;;;;;;5023502;28;20022;-59
2023/07/28 04:08:39;;;;;;;5.22;2.63;;;23.20;99.90;;;;;;5031867;28;20036;-59
2023/07/28 04:11:05;;;;;;;3.70;2.47;;;23.30;99.90;;;;;;5029144;28;20025;-58
2023/07/28 04:13:32;;;;;;;8.00;3.03;;;23.30;99.90;;;;;;5033806;28;20072;-59
2023/07/28 04:15:58;;;;;;;5.95;2.78;;;23.30;99.90;;;;;;5030715;28;20056;-59
2023/07/28 04:18:24;;;;;;;4.40;2.78;;;23.20;99.90;;;;;;5027078;28;20057;-59
2023/07/28 04:20:51;;;;;;;4.10;2.95;;;23.30;99.90;;;;;;5028698;28;20494;-58
2023/07/28 04:23:16;;;;;;;3.97;2.72;;;23.20;99.90;;;;;;5020824;28;20029;-58
2023/07/28 04:25:42;;;;;;;5.22;3.28;;;23.20;99.90;;;;;;5035894;28;20033;-58
2023/07/28 04:28:08;;;;;;;9.25;3.38;;;23.20;99.90;;;;;;5032932;28;20104;-58
2023/07/28 04:30:34;;;;;;;4.18;2.78;;;23.20;99.90;;;;;;5034301;28;20025;-59
2023/07/28 04:33:00;;;;;;;6.30;3.20;;;23.20;99.90;;;;;;5035093;28;20499;-59
2023/07/28 04:35:25;;;;;;;3.38;2.90;;;23.10;99.90;;;;;;5021613;28;20094;-58
2023/07/28 04:37:51;;;;;;;6.13;2.85;;;23.10;99.90;;;;;;5035796;28;20109;-59
2023/07/28 04:40:17;;;;;;;9.23;3.97;;;23.10;99.90;;;;;;5029524;28;20030;-59
2023/07/28 04:42:43;;;;;;;8.20;3.20;;;23.10;99.90;;;;;;5025711;28;20057;-59
2023/07/28 04:45:09;;;;;;;13.02;3.40;;;23.10;99.90;;;;;;5035505;28;20038;-59
2023/07/28 04:47:35;;;;;;;6.93;2.95;;;23.20;99.90;;;;;;5023017;28;20055;-59
2023/07/28 04:50:01;;;;;;;3.90;2.88;;;23.20;99.90;;;;;;5028442;28;20041;-59
2023/07/28 04:52:28;;;;;;;5.68;3.17;;;23.20;99.90;;;;;;5031060;28;20029;-59
2023/07/28 04:54:53;;;;;;;6.57;2.70;;;23.20;99.90;;;;;;5033763;28;20056;-58
2023/07/28 04:57:19;;;;;;;6.63;2.95;;;23.10;99.90;;;;;;5031844;28;20479;-59
2023/07/28 04:59:48;;;;;;;5.75;3.65;;;23.20;99.90;;;;;;5034370;28;20455;-58
2023/07/28 05:02:13;;;;;;;6.10;3.10;;;23.20;99.90;;;;;;5034045;28;20119;-61
2023/07/28 05:04:39;;;;;;;5.88;3.50;;;23.20;99.90;;;;;;5032943;28;20053;-57
2023/07/28 05:07:06;;;;;;;5.60;3.38;;;23.20;99.90;;;;;;5031881;28;20026;-59
2023/07/28 05:09:32;;;;;;;6.30;2.92;;;23.20;99.90;;;;;;5030818;28;20061;-59
2023/07/28 05:11:57;;;;;;;4.53;3.30;;;23.20;99.90;;;;;;5029275;28;20463;-59
2023/07/28 05:14:23;;;;;;;9.73;3.38;;;23.20;99.90;;;;;;5033447;28;20029;-58
2023/07/28 05:16:49;;;;;;;5.40;2.92;;;23.30;99.90;;;;;;5022839;28;20106;-59
2023/07/28 05:19:14;;;;;;;5.78;3.20;;;23.40;99.90;;;;;;5032824;28;20051;-59
2023/07/28 05:21:40;;;;;;;4.88;3.25;;;23.40;99.90;;;;;;5023839;28;20018;-57
2023/07/28 05:24:05;;;;;;;4.55;3.25;;;23.50;99.90;;;;;;5034584;28;20132;-57
2023/07/28 05:26:31;;;;;;;4.60;3.20;;;23.50;99.90;;;;;;5029478;28;20014;-58
2023/07/28 05:28:57;;;;;;;7.18;3.63;;;23.50;99.90;;;;;;5032036;28;20060;-58
2023/07/28 05:31:22;;;;;;;4.60;3.00;;;23.50;99.90;;;;;;5032155;28;20025;-59
2023/07/28 05:33:49;;;;;;;7.95;3.50;;;23.50;99.90;;;;;;5019379;28;20032;-58
2023/07/28 05:36:14;;;;;;;4.18;3.20;;;23.50;99.90;;;;;;5033500;28;20021;-58
2023/07/28 05:38:40;;;;;;;4.53;3.35;;;23.50;99.90;;;;;;5032962;28;20063;-58
2023/07/28 05:41:07;;;;;;;6.97;3.58;;;23.40;99.90;;;;;;5030718;28;20167;-59
2023/07/28 05:43:33;;;;;;;7.45;4.15;;;23.40;99.90;;;;;;5032609;28;20391;-59
2023/07/28 05:46:00;;;;;;;4.78;3.45;;;23.40;99.90;;;;;;5027370;28;20498;-57
2023/07/28 05:48:25;;;;;;;4.07;3.17;;;23.40;99.90;;;;;;5028805;28;20034;-58
2023/07/28 05:50:53;;;;;;;5.07;3.25;;;23.40;99.90;;;;;;5032913;28;20355;-59
2023/07/28 05:53:22;;;;;;;6.03;3.63;;;23.40;99.90;;;;;;5029296;28;20026;-58
2023/07/28 05:55:48;;;;;;;6.35;4.53;;;23.30;99.90;;;;;;5030679;28;20036;-59
2023/07/28 05:58:14;;;;;;;7.18;3.75;;;23.40;99.90;;;;;;5024460;28;20079;-57
2023/07/28 06:00:40;;;;;;;6.55;3.80;;;23.40;99.90;;;;;;5033228;28;20049;-59
2023/07/28 06:03:08;;;;;;;6.43;4.03;;;23.40;99.90;;;;;;5022036;28;20025;-59
2023/07/28 06:05:35;;;;;;;7.05;3.53;;;23.40;99.90;;;;;;5032787;28;20498;-58
2023/07/28 06:08:00;;;;;;;7.22;3.38;;;23.40;99.90;;;;;;5029274;28;20034;-59
2023/07/28 06:10:26;;;;;;;6.50;3.75;;;23.40;99.90;;;;;;5031516;28;20040;-57
2023/07/28 06:12:52;;;;;;;5.80;3.55;;;23.40;99.90;;;;;;5028960;28;20029;-58
2023/07/28 06:15:17;;;;;;;6.03;3.58;;;23.40;99.90;;;;;;5020468;28;20495;-57
2023/07/28 06:17:43;;;;;;;6.50;3.40;;;23.40;99.90;;;;;;5026511;28;20053;-57
2023/07/28 06:20:09;;;;;;;8.85;3.45;;;23.40;99.90;;;;;;5029872;28;20369;-57
2023/07/28 06:22:35;;;;;;;4.25;3.17;;;23.50;99.90;;;;;;5029766;28;20394;-57
2023/07/28 06:25:01;;;;;;;4.57;3.10;;;23.50;99.90;;;;;;5031323;28;20175;-58
2023/07/28 06:27:27;;;;;;;7.72;3.65;;;23.50;99.90;;;;;;5030809;28;20479;-58
2023/07/28 06:29:53;;;;;;;6.35;3.08;;;23.50;99.90;;;;;;5031981;28;20494;-58
2023/07/28 06:32:20;;;;;;;4.28;3.30;;;23.50;99.90;;;;;;5031829;28;20049;-57
2023/07/28 06:34:46;;;;;;;4.68;3.38;;;23.50;99.90;;;;;;5026768;28;20446;-58
2023/07/28 06:37:12;;;;;;;7.20;3.78;;;23.50;99.90;;;;;;5026999;28;20112;-58
2023/07/28 06:39:37;;;;;;;6.60;3.85;;;23.50;99.90;;;;;;5031749;28;20128;-59
2023/07/28 06:42:03;;;;;;;6.45;3.42;;;23.60;99.90;;;;;;5022622;28;20030;-58
2023/07/28 06:44:29;;;;;;;8.65;3.30;;;23.60;99.90;;;;;;5029059;28;20059;-57
2023/07/28 06:46:55;;;;;;;7.35;3.03;;;23.60;99.90;;;;;;5030115;28;20053;-58
2023/07/28 06:49:21;;;;;;;6.13;3.25;;;23.70;99.90;;;;;;5038872;28;20045;-58
2023/07/28 06:51:46;;;;;;;5.60;2.72;;;23.80;99.90;;;;;;5025889;28;20033;-58
2023/07/28 06:54:12;;;;;;;6.50;2.63;;;23.80;99.90;;;;;;5029263;28;20121;-58
2023/07/28 06:56:39;;;;;;;3.33;2.42;;;23.80;99.90;;;;;;5030123;28;20036;-58
2023/07/28 06:59:06;;;;;;;6.15;2.75;;;23.80;99.90;;;;;;5032753;28;20471;-58
2023/07/28 07:01:32;;;;;;;4.65;2.67;;;23.80;99.90;;;;;;5026757;28;20451;-58
2023/07/28 07:03:58;;;;;;;5.18;3.25;;;23.80;99.90;;;;;;5032259;28;20425;-58
2023/07/28 07:06:24;;;;;;;6.78;2.45;;;23.80;99.90;;;;;;5031149;28;20026;-57
2023/07/28 07:08:49;;;;;;;4.15;2.88;;;23.90;99.90;;;;;;5030911;28;20033;-59
2023/07/28 07:11:15;;;;;;;7.10;2.85;;;23.90;99.90;;;;;;5032644;28;20033;-59
2023/07/28 07:13:41;;;;;;;3.63;2.65;;;23.90;99.90;;;;;;5030681;28;20013;-59
2023/07/28 07:16:16;;;;;;;5.25;2.70;;;24.00;99.90;;;;;;5032760;28;20033;-58
2023/07/28 07:18:45;;;;;;;4.65;3.05;;;24.00;99.90;;;;;;5026171;28;20026;-66
2023/07/28 07:21:11;;;;;;;3.85;2.53;;;24.00;99.90;;;;;;5031403;28;20026;-67
2023/07/28 07:23:37;;;;;;;6.88;3.38;;;24.00;99.90;;;;;;5030181;28;20625;-66
2023/07/28 07:26:03;;;;;;;6.53;2.35;;;24.10;99.90;;;;;;5021007;28;20032;-67
2023/07/28 07:28:29;;;;;;;5.53;2.70;;;24.20;99.90;;;;;;5029902;28;20068;-66
2023/07/28 07:30:55;;;;;;;7.18;2.72;;;24.20;99.90;;;;;;5026517;28;20427;-67
2023/07/28 07:33:21;;;;;;;6.10;2.50;;;24.20;99.90;;;;;;5018991;28;20427;-67
2023/07/28 07:35:47;;;;;;;6.95;3.33;;;24.30;99.90;;;;;;5028396;28;20020;-66
2023/07/28 07:38:13;;;;;;;6.47;2.92;;;24.30;99.90;;;;;;5027912;28;20029;-66
2023/07/28 07:40:38;;;;;;;8.98;3.35;;;24.40;99.90;;;;;;5031072;28;20037;-67
2023/07/28 07:43:04;;;;;;;9.23;4.05;;;24.40;99.90;;;;;;5026166;28;20032;-66
2023/07/28 07:45:30;;;;;;;9.30;3.17;;;24.50;99.90;;;;;;5027635;28;20732;-66
2023/07/28 07:47:56;;;;;;;7.03;3.22;;;24.50;99.90;;;;;;5034818;28;20422;-66
2023/07/28 07:50:22;;;;;;;7.68;3.33;;;24.50;99.90;;;;;;5033821;28;20128;-66
2023/07/28 07:52:47;;;;;;;7.40;2.75;;;24.60;99.90;;;;;;5031108;28;20506;-66
2023/07/28 07:55:13;;;;;;;9.90;3.47;;;24.70;99.90;;;;;;5033920;28;20428;-66
2023/07/28 07:57:40;;;;;;;7.35;2.92;;;24.70;99.90;;;;;;5034242;28;20029;-66
2023/07/28 08:00:06;;;;;;;7.57;3.03;;;24.70;99.90;;;;;;5031397;28;20171;-67
2023/07/28 08:02:32;;;;;;;7.00;3.20;;;24.80;99.90;;;;;;5027447;28;20038;-68
2023/07/28 08:04:58;;;;;;;5.55;2.70;;;24.70;99.90;;;;;;5033066;28;20537;-67
2023/07/28 08:07:23;;;;;;;7.88;3.45;;;24.80;99.90;;;;;;5034085;28;20489;-66
2023/07/28 08:09:50;;;;;;;11.73;3.70;;;24.90;99.90;;;;;;5031715;28;20511;-65
2023/07/28 08:12:16;;;;;;;7.22;2.92;;;24.90;99.90;;;;;;5031076;28;20033;-65
2023/07/28 08:14:42;;;;;;;5.68;3.08;;;24.90;99.90;;;;;;5029233;28;20395;-67
2023/07/28 08:17:08;;;;;;;6.93;3.25;;;25.00;99.90;;;;;;5032897;28;20091;-66
2023/07/28 08:19:34;;;;;;;5.00;2.90;;;25.00;99.90;;;;;;5033466;28;20048;-66
2023/07/28 08:22:01;;;;;;;9.93;3.92;;;25.00;99.90;;;;;;5030032;28;20128;-66
2023/07/28 08:24:26;;;;;;;11.30;4.40;;;25.10;99.90;;;;;;5033102;28;20036;-66
2023/07/28 08:26:52;;;;;;;8.23;4.63;;;25.10;99.90;;;;;;5029239;28;20041;-66
2023/07/28 08:29:17;;;;;;;8.35;4.13;;;25.20;99.90;;;;;;5034558;28;20025;-65
2023/07/28 08:31:43;;;;;;;8.25;5.68;;;25.20;99.90;;;;;;5034140;28;20044;-65
2023/07/28 08:34:09;;;;;;;9.18;4.32;;;25.30;99.90;;;;;;5033837;28;20022;-65
2023/07/28 08:36:34;;;;;;;13.73;4.72;;;25.40;99.90;;;;;;5034867;28;20057;-65
2023/07/28 08:39:00;;;;;;;7.65;3.92;;;25.30;99.90;;;;;;5032803;28;20402;-66
2023/07/28 08:41:26;;;;;;;9.00;3.42;;;25.40;99.90;;;;;;5034634;28;20107;-65
2023/07/28 08:43:53;;;;;;;8.18;3.72;;;25.50;99.90;;;;;;5032813;28;20052;-65
2023/07/28 08:46:20;;;;;;;9.20;4.22;;;25.60;99.90;;;;;;5034230;28;20025;-65
2023/07/28 08:48:46;;;;;;;6.85;3.50;;;25.60;99.90;;;;;;5032422;28;20549;-65
2023/07/28 08:51:13;;;;;;;6.30;3.45;;;25.50;99.90;;;;;;5034090;28;20022;-65
2023/07/28 08:53:39;;;;;;;6.78;3.58;;;25.60;99.90;;;;;;5022159;28;20034;-65
2023/07/28 08:56:05;;;;;;;9.10;3.53;;;25.60;99.90;;;;;;5032684;28;20052;-66
2023/07/28 08:58:31;;;;;;;8.20;2.80;;;25.60;99.90;;;;;;5033496;28;20037;-65
2023/07/28 09:01:00;;;;;;;6.40;2.92;;;25.60;99.90;;;;;;5033893;28;20419;-65
2023/07/28 09:03:27;;;;;;;10.60;3.13;;;25.70;99.90;;;;;;5033393;28;20032;-65
2023/07/28 09:06:02;;;;;;;3.72;2.78;;;25.70;99.90;;;;;;5033781;28;20036;-65
2023/07/28 09:08:30;;;;;;;5.68;2.80;;;25.80;99.90;;;;;;5019846;28;20025;-65
2023/07/28 09:11:00;;;;;;;4.93;2.95;;;25.90;99.90;;;;;;5033918;28;20041;-65
2023/07/28 09:13:41;;;;;;;8.77;2.65;;;25.80;99.90;;;;;;5033775;28;20023;-65
2023/07/28 09:16:17;;;;;;;3.65;2.85;;;25.80;99.90;;;;;;5032849;28;20091;-65
2023/07/28 09:18:43;;;;;;;4.72;2.47;;;25.90;99.90;;;;;;5033379;28;20033;-64
2023/07/28 09:21:17;;;;;;;3.05;2.72;;;25.90;99.90;;;;;;5032062;28;20498;-65
2023/07/28 09:23:44;;;;;;;;;;;25.90;99.90;;;;;;5034503;28;20439;-65
2023/07/28 09:26:10;;;;;;;7.40;3.00;;;25.90;99.90;;;;;;5031973;28;19920;-65
2023/07/28 09:28:39;;;;;;;7.88;3.42;;;25.90;99.90;;;;;;5033749;28;20026;-65
2023/07/28 09:31:06;;;;;;;7.72;3.22;;;26.00;99.90;;;;;;5033470;28;20042;-65
2023/07/28 09:33:33;;;;;;;6.13;3.10;;;26.10;99.90;;;;;;5033039;28;20021;-65
2023/07/28 09:36:08;;;;;;;6.72;2.78;;;26.10;99.90;;;;;;5033537;28;20041;-65
2023/07/28 09:38:36;;;;;;;4.80;2.60;;;26.20;99.90;;;;;;5038142;28;20025;-65
2023/07/28 09:41:07;;;;;;;5.75;2.72;;;26.20;99.90;;;;;;5032656;28;20069;-66
2023/07/28 09:43:33;;;;;;;6.43;2.45;;;26.20;99.90;;;;;;5034260;28;20033;-66
2023/07/28 09:45:59;;;;;;;3.20;2.30;;;26.20;99.90;;;;;;5034008;28;20410;-66
2023/07/28 09:48:29;;;;;;;6.38;2.95;;;26.30;99.90;;;;;;5032560;28;20029;-66
2023/07/28 09:50:55;;;;;;;3.50;2.60;;;26.30;99.90;;;;;;5033312;28;20033;-66
2023/07/28 09:53:26;;;;;;;6.20;2.80;;;26.40;99.90;;;;;;5033142;28;20025;-67
2023/07/28 09:55:52;;;;;;;3.40;2.60;;;26.40;99.90;;;;;;5032117;28;20110;-66
2023/07/28 09:58:21;;;;;;;7.10;3.53;;;26.40;99.90;;;;;;5033311;28;20033;-66
2023/07/28 10:00:48;;;;;;;6.70;2.97;;;26.50;99.90;;;;;;5033557;28;20584;-67
2023/07/28 10:03:15;;;;;;;6.38;3.15;;;26.50;99.90;;;;;;5033584;28;20056;-67
2023/07/28 10:05:41;;;;;;;8.23;3.28;;;26.50;99.90;;;;;;5033663;28;20027;-66
2023/07/28 10:08:08;;;;;;;6.82;2.60;;;26.50;99.90;;;;;;5033412;28;20116;-66
2023/07/28 10:10:34;;;;;;;6.97;2.83;;;26.60;99.90;;;;;;5025796;28;20506;-67
2023/07/28 10:12:59;;;;;;;6.22;3.38;;;26.80;99.90;;;;;;5027047;28;20022;-67
2023/07/28 10:15:30;;;;;;;4.35;2.42;;;26.80;99.90;;;;;;5033293;28;20025;-68
2023/07/28 10:18:00;;;;;;;5.40;3.10;;;26.80;99.90;;;;;;5033630;28;20044;-67
2023/07/28 10:20:29;;;;;;;8.15;2.95;;;26.80;99.90;;;;;;5033356;28;20455;-67
2023/07/28 10:23:03;;;;;;;6.20;2.80;;;26.80;99.90;;;;;;5032043;28;20029;-66
2023/07/28 10:25:34;;;;;;;3.58;2.45;;;27.00;99.90;;;;;;5033397;28;20374;-67
2023/07/28 10:27:59;;;;;;;3.97;2.85;;;27.00;99.90;;;;;;5032034;28;20044;-66
2023/07/28 10:30:25;;;;;;;4.22;2.47;;;27.00;99.90;;;;;;5033174;28;20033;-67
2023/07/28 10:32:54;;;;;;;6.28;3.13;;;27.10;99.90;;;;;;5033116;28;20025;-65
2023/07/28 10:35:27;;;;;;;3.28;2.58;;;27.00;99.90;;;;;;5033175;28;20040;-66
2023/07/28 10:37:56;;;;;;;3.60;2.25;;;27.10;99.90;;;;;;5033034;28;20030;-66
2023/07/28 10:40:35;;;;;;;2.83;2.17;;;;;;;;;;5032115;28;20399;-66
2023/07/28 10:43:01;;;;;;;5.35;2.50;;;;;;;;;;5021999;28;20497;-67
2023/07/28 10:45:28;;;;;;;3.80;2.90;;;;;;;;;;5032973;28;20529;-66
2023/07/28 10:47:55;;;;;;;4.00;2.03;;;;;;;;;;5033007;28;20099;-66
2023/07/28 10:50:22;;;;;;;4.75;2.85;;;;;;;;;;5032866;28;20485;-66
2023/07/28 10:52:48;;;;;;;3.75;2.90;;;27.20;99.90;;;;;;5032776;28;20091;-66
2023/07/28 10:55:22;;;;;;;4.88;2.75;;;27.60;99.90;;;;;;5032913;28;20033;-66
2023/07/28 10:57:50;;;;;;;6.20;3.13;;;27.60;99.90;;;;;;5033015;28;20040;-67
2023/07/28 11:00:21;;;;;;;5.13;3.03;;;27.70;99.90;;;;;;5022152;28;20137;-65
2023/07/28 11:02:52;;;;;;;4.72;2.80;;;27.70;99.90;;;;;;5030352;28;20017;-66
2023/07/28 11:05:26;;;;;;;4.22;2.80;;;27.80;99.90;;;;;;5018988;28;20135;-66
2023/07/28 11:07:55;;;;;;;4.10;3.13;;;27.90;99.90;;;;;;5032822;28;20022;-67
2023/07/28 11:10:21;;;;;;;4.28;2.60;;;28.00;99.90;;;;;;5032929;28;20025;-66
2023/07/28 11:12:49;;;;;;;2.92;2.15;;;28.10;99.90;;;;;;5031501;28;20116;-67
2023/07/28 11:15:16;;;;;;;3.42;2.22;;;28.20;99.90;;;;;;5031839;28;20502;-66
2023/07/28 11:17:47;;;;;;;9.38;7.20;;;28.40;99.90;;;;;;5032450;28;20029;-66
2023/07/28 11:20:20;;;;;;;17.35;15.05;;;28.50;99.90;;;;;;5033776;28;20568;-66
2023/07/28 11:22:51;;;;;;;12.20;8.60;;;28.60;99.90;;;;;;5036788;28;20533;-65
2023/07/28 11:25:25;;;;;;;18.20;16.40;;;28.70;99.90;;;;;;5036607;28;20044;-66
2023/07/28 11:27:51;;;;;;;5.30;4.60;;;28.90;99.90;;;;;;5036592;28;20395;-66
2023/07/28 11:30:18;;;;;;;7.25;6.55;;;29.00;99.90;;;;;;5036338;28;20140;-66
2023/07/28 11:32:46;;;;;;;11.23;9.60;;;29.10;99.90;;;;;;5036455;28;20022;-66
2023/07/28 11:35:13;;;;;;;22.73;19.85;;;29.20;99.90;;;;;;5035183;28;20018;-66
2023/07/28 11:37:41;;;;;;;17.27;15.57;;;29.40;99.90;;;;;;5035104;28;20061;-66
2023/07/28 11:40:10;;;;;;;87.28;75.85;;;29.60;99.90;;;;;;5036530;28;20095;-66
2023/07/28 11:42:42;;;;;;;17.90;16.00;;;;;;;;;;5036191;28;20031;-66
2023/07/28 11:45:09;;;;;;;37.85;33.67;;;;;;;;;;5036445;28;20036;-66
2023/07/28 11:47:35;;;;;;;31.45;28.27;;;;;;;;;;5036162;28;20028;-67
2023/07/28 11:50:02;;;;;;;11.18;9.77;;;31.60;99.90;;;;;;5036147;28;20079;-65
2023/07/28 11:52:32;;;;;;;25.80;20.58;;;;;;;;;;5035795;28;20026;-67
2023/07/28 11:55:10;;;;;;;5.38;4.10;;;37.30;99.90;;;;;;5029207;28;20065;-65
2023/07/28 11:57:36;;;;;;;6.75;4.80;;;;;;;;;;5035807;28;20480;-65
2023/07/28 12:00:04;;;;;;;10.40;8.55;;;40.80;99.90;;;;;;5035684;28;20503;-65
2023/07/28 12:02:33;;;;;;;7.28;4.72;;;43.20;99.90;;;;;;5036125;28;20041;-65
2023/07/28 12:04:59;;;;;;;5.70;5.13;;;42.80;99.90;;;;;;5035805;28;20479;-64
2023/07/28 12:07:31;;;;;;;7.28;3.75;;;42.60;99.90;;;;;;5036093;28;20357;-65
2023/07/28 12:10:02;;;;;;;6.45;5.03;;;41.70;99.90;;;;;;5035718;28;20525;-65
2023/07/28 12:12:30;;;;;;;7.60;5.45;;;40.40;99.90;;;;;;5035286;28;20502;-65
2023/07/28 12:14:58;;;;;;;14.85;4.65;;;;;;;;;;5033821;28;20504;-65
2023/07/28 12:17:27;;;;;;;7.85;7.18;;;38.60;99.90;;;;;;5023571;28;20108;-65
2023/07/28 12:20:14;;;;;;;5.72;4.50;;;;;;;;;;5021782;28;20044;-65
2023/07/28 12:22:44;;;;;;;5.43;4.38;;;;;;;;;;5035426;28;20033;-65
2023/07/28 12:25:10;;;;;;;4.80;4.40;;;;;;;;;;5035121;28;20120;-60
2023/07/28 12:27:37;;;;;;;7.32;4.82;;;;;;;;;;5035699;28;20045;-61
2023/07/28 12:30:03;;;;;;;7.47;6.30;;;;;;;;;;5035606;28;20021;-61
2023/07/28 12:32:29;;;;;;;4.72;4.00;;;;;;;;;;5033257;28;20049;-61
2023/07/28 12:34:55;;;;;;;4.28;3.97;;;;;;;;;;5029015;28;20026;-60
2023/07/28 12:37:43;;;;;;;11.18;10.07;;;38.70;99.90;;;;;;5031924;28;20029;-60
2023/07/28 12:40:10;;;;;;;9.70;5.82;;;41.70;99.90;;;;;;5032234;28;20049;-61
2023/07/28 12:42:35;;;;;;;6.38;3.60;;;42.20;99.90;;;;;;5035106;28;20228;-60
2023/07/28 12:45:01;;;;;;;8.45;7.70;;;41.30;99.90;;;;;;5024219;28;20435;-59
2023/07/28 12:47:27;;;;;;;4.57;4.18;;;40.00;99.90;;;;;;5032339;28;20100;-58
2023/07/28 12:49:53;;;;;;;6.70;6.10;;;38.70;99.90;;;;;;5033811;28;20130;-59
2023/07/28 12:52:20;;;;;;;6.10;4.32;;;38.10;99.90;;;;;;5035055;28;20475;-68
2023/07/28 12:58:14;;;;;;;4.50;3.88;;;39.10;99.90;;;;;;5027615;28;20048;-68